Time;durP1;ratioP1;P1;durP2;ratioP2;P2;SDS_P1;SDS_P2;PMS_P1;PMS_P2;Temp;Humidity;BMP_temperature;BMP_pressure;BME280_temperature;BME280_humidity;BME280_pressure;Samples;Min_cycle;Max_cycle;Signal;HPM_P1;HPM_P2
2021/04/12 00:02:48;;;;;;;1999.90;999.90;;;16.30;99.90;;;;;;5137141;27;20158;-45
2021/04/12 00:05:23;;;;;;;1999.90;999.90;;;16.20;99.90;;;;;;5137023;27;20511;-46
2021/04/12 00:08:12;;;;;;;1999.90;999.90;;;16.20;99.90;;;;;;5137087;27;20165;-46
2021/04/12 00:10:50;;;;;;;1999.90;999.90;;;16.20;99.50;;;;;;5136983;27;20165;-52
2021/04/12 00:13:43;;;;;;;1999.90;999.90;;;16.10;99.50;;;;;;5136832;27;20190;-46
2021/04/12 00:16:41;;;;;;;1999.90;999.90;;;16.10;99.80;;;;;;5136948;27;20150;-50
2021/04/12 00:19:10;;;;;;;1999.90;999.90;;;16.10;99.90;;;;;;5135486;27;20228;-45
2021/04/12 00:21:43;;;;;;;1999.90;999.90;;;16.00;99.80;;;;;;5136921;27;20166;-48
2021/04/12 00:24:42;;;;;;;1999.90;999.90;;;16.00;99.80;;;;;;5136917;27;20676;-44
2021/04/12 00:27:30;;;;;;;1999.90;999.90;;;16.00;99.90;;;;;;5136989;27;20545;-45
2021/04/12 00:30:07;;;;;;;1999.90;999.90;;;16.00;99.50;;;;;;5136887;27;20237;-45
2021/04/12 00:32:36;;;;;;;1999.90;999.90;;;15.80;99.70;;;;;;5136858;27;20186;-45
2021/04/12 00:35:12;;;;;;;1999.90;999.90;;;15.80;99.90;;;;;;5136717;27;20528;-48
2021/04/12 00:37:42;;;;;;;1999.90;999.90;;;15.70;99.90;;;;;;5136639;27;20162;-45
2021/04/12 00:40:11;;;;;;;1999.90;999.90;;;15.70;99.90;;;;;;5136584;27;20197;-45
2021/04/12 00:42:53;;;;;;;1999.90;999.90;;;15.60;99.90;;;;;;5136590;27;20636;-44
2021/04/12 00:45:46;;;;;;;1999.90;999.90;;;15.60;99.90;;;;;;5136536;27;20204;-46
2021/04/12 00:48:52;;;;;;;1999.90;999.90;;;15.60;99.90;;;;;;5112333;27;20178;-45
2021/04/12 00:51:40;;;;;;;1999.90;999.90;;;15.50;99.90;;;;;;5136402;27;20215;-44
2021/04/12 00:54:34;;;;;;;1999.90;999.90;;;15.60;99.90;;;;;;5136072;27;20212;-47
2021/04/12 00:57:12;;;;;;;1999.90;999.90;;;15.50;99.90;;;;;;5135995;27;20749;-44
2021/04/12 00:59:53;;;;;;;1999.90;999.90;;;15.60;99.90;;;;;;5136135;27;20158;-47
2021/04/12 01:02:56;;;;;;;1999.90;999.90;;;15.60;99.90;;;;;;5136135;27;20204;-45
2021/04/12 01:05:33;;;;;;;1999.90;999.90;;;15.60;99.60;;;;;;5136009;27;20158;-45
2021/04/12 01:08:28;;;;;;;1999.90;999.90;;;15.60;99.20;;;;;;5135967;27;20158;-44
2021/04/12 01:10:55;;;;;;;1999.90;999.90;;;15.60;99.10;;;;;;5136003;27;20190;-48
2021/04/12 01:13:33;;;;;;;1999.90;999.90;;;15.60;99.10;;;;;;5135888;27;20194;-47
2021/04/12 01:16:33;;;;;;;1999.90;999.90;;;15.50;99.30;;;;;;5135812;27;20526;-45
2021/04/12 01:19:17;;;;;;;1999.90;999.90;;;15.50;99.30;;;;;;5135379;27;20614;-47
2021/04/12 01:22:32;;;;;;;1999.90;999.90;;;15.50;99.20;;;;;;5135945;27;20158;-45
2021/04/12 01:25:27;;;;;;;1999.90;999.90;;;15.40;99.30;;;;;;5122040;27;20182;-44
2021/04/12 01:28:44;;;;;;;1999.90;999.90;;;15.40;99.80;;;;;;5135669;27;20169;-43
2021/04/12 01:31:47;;;;;;;1999.90;999.90;;;15.40;99.90;;;;;;5135781;27;20166;-44
2021/04/12 01:34:48;;;;;;;1999.90;999.90;;;15.30;99.90;;;;;;5135487;27;20282;-44
2021/04/12 01:37:28;;;;;;;1999.90;999.90;;;15.30;99.90;;;;;;5135599;27;20151;-45
2021/04/12 01:40:21;;;;;;;1999.90;999.90;;;15.20;99.90;;;;;;5135441;27;20592;-46
2021/04/12 01:43:26;;;;;;;1999.90;999.90;;;15.30;99.90;;;;;;5135240;27;20164;-46
2021/04/12 01:46:33;;;;;;;1999.90;999.90;;;15.20;99.90;;;;;;5132487;27;20193;-45
2021/04/12 01:49:19;;;;;;;1999.90;999.90;;;15.10;99.90;;;;;;5135256;27;20203;-45
2021/04/12 01:52:24;;;;;;;1999.90;999.90;;;15.10;99.90;;;;;;5135122;27;20163;-45
2021/04/12 01:55:03;;;;;;;1999.90;999.90;;;15.00;99.90;;;;;;5135033;27;20174;-44
2021/04/12 01:57:49;;;;;;;1999.90;999.90;;;15.10;99.90;;;;;;5135090;27;20158;-48
2021/04/12 02:00:40;;;;;;;1999.90;999.90;;;15.10;99.90;;;;;;5134919;27;20166;-47
2021/04/12 02:03:45;;;;;;;1999.90;999.90;;;15.10;98.70;;;;;;5134952;27;20154;-44
2021/04/12 02:06:18;;;;;;;1999.90;999.90;;;15.10;98.50;;;;;;5135017;27;20287;-45
2021/04/12 02:08:55;;;;;;;1999.90;999.90;;;15.10;98.40;;;;;;5134201;27;20294;-44
2021/04/12 02:12:11;;;;;;;1999.90;999.90;;;15.10;98.40;;;;;;5134877;27;20158;-50
2021/04/12 02:15:03;;;;;;;1999.90;999.90;;;15.10;99.10;;;;;;5131865;27;20198;-46
2021/04/12 02:18:06;;;;;;;1999.90;999.90;;;15.00;99.30;;;;;;5134794;27;20655;-49
2021/04/12 02:20:45;;;;;;;1999.90;999.90;;;15.00;99.90;;;;;;5134659;27;20174;-44
2021/04/12 02:23:44;;;;;;;1999.90;999.90;;;15.00;99.90;;;;;;5134832;27;20193;-44
2021/04/12 02:26:11;;;;;;;1999.90;999.90;;;14.90;99.90;;;;;;5130522;27;20179;-48
2021/04/12 02:29:09;;;;;;;1999.90;999.90;;;14.90;99.90;;;;;;5134474;27;20162;-45
2021/04/12 02:32:06;;;;;;;1999.90;999.90;;;14.90;99.90;;;;;;5134472;27;20159;-44
2021/04/12 02:35:00;;;;;;;1999.90;999.90;;;14.70;99.90;;;;;;5134325;27;20259;-45
2021/04/12 02:37:59;;;;;;;1999.90;999.90;;;14.70;99.90;;;;;;5134390;27;20143;-44
2021/04/12 02:40:54;;;;;;;1999.90;999.90;;;14.80;99.90;;;;;;5134341;27;20162;-44
2021/04/12 02:43:48;;;;;;;1999.90;999.90;;;14.80;99.90;;;;;;5134332;27;20154;-44
2021/04/12 02:46:41;;;;;;;1999.90;999.90;;;14.70;99.90;;;;;;5134344;27;20162;-44
2021/04/12 02:49:23;;;;;;;1999.90;999.90;;;14.60;99.90;;;;;;5134081;27;20162;-45
2021/04/12 02:52:18;;;;;;;1999.90;999.90;;;14.60;99.90;;;;;;5132735;27;20166;-45
2021/04/12 02:55:05;;;;;;;1999.90;999.90;;;14.60;99.90;;;;;;5134271;27;20161;-45
2021/04/12 02:57:46;;;;;;;1999.90;999.90;;;14.50;99.90;;;;;;5134086;27;20151;-44
2021/04/12 03:00:29;;;;;;;1999.90;999.90;;;14.60;99.90;;;;;;5134276;27;20151;-44
2021/04/12 03:03:25;;;;;;;1999.90;999.90;;;14.50;98.70;;;;;;5133900;27;20158;-46
2021/04/12 03:06:34;;;;;;;1999.90;999.90;;;14.50;98.50;;;;;;5134078;27;20155;-46
2021/04/12 03:09:19;;;;;;;1999.90;999.90;;;14.50;98.00;;;;;;5133844;27;20158;-45
2021/04/12 03:12:10;;;;;;;1999.90;999.90;;;14.50;97.80;;;;;;5133939;27;20174;-43
2021/04/12 03:15:01;;;;;;;1999.90;999.90;;;14.40;97.80;;;;;;5133707;27;20202;-44
2021/04/12 03:18:07;;;;;;;1999.90;999.90;;;14.50;97.90;;;;;;5134215;28;20165;-44
2021/04/12 03:20:46;;;;;;;1999.90;999.90;;;14.30;98.20;;;;;;5135118;27;20178;-47
2021/04/12 03:23:43;;;;;;;1999.90;999.90;;;14.30;98.20;;;;;;5137963;27;20261;-48
2021/04/12 03:26:41;;;;;;;1999.90;999.90;;;14.30;98.30;;;;;;5138110;27;20162;-43
2021/04/12 03:29:26;;;;;;;1999.90;999.90;;;14.30;98.20;;;;;;5137875;27;20163;-43
2021/04/12 03:32:14;;;;;;;1999.90;999.90;;;14.30;98.30;;;;;;5138056;27;20515;-43
2021/04/12 03:34:56;;;;;;;1999.90;999.90;;;14.20;98.80;;;;;;5137853;27;20214;-43
2021/04/12 03:37:36;;;;;;;1999.90;999.90;;;14.10;99.10;;;;;;5137969;27;20155;-43
2021/04/12 03:40:29;;;;;;;1999.90;999.90;;;14.10;99.40;;;;;;5137744;27;20158;-43
2021/04/12 03:43:10;;;;;;;1999.90;999.90;;;14.10;99.80;;;;;;5134969;27;20210;-43
2021/04/12 03:46:06;;;;;;;1999.90;999.90;;;14.00;99.90;;;;;;5137681;27;20186;-43
2021/04/12 03:49:14;;;;;;;1999.90;999.90;;;14.10;99.90;;;;;;5137678;27;20158;-43
2021/04/12 03:52:07;;;;;;;1999.90;999.90;;;14.10;99.90;;;;;;5137594;27;20219;-46
2021/04/12 03:54:37;;;;;;;1999.90;999.90;;;14.10;99.90;;;;;;5137440;27;20194;-43
2021/04/12 03:57:42;;;;;;;1999.90;999.90;;;14.10;99.90;;;;;;5137423;27;20158;-45
2021/04/12 04:00:45;;;;;;;1999.90;999.90;;;14.20;99.90;;;;;;5137338;27;20169;-44
2021/04/12 04:03:40;;;;;;;1999.90;999.90;;;14.20;99.90;;;;;;5137285;27;20632;-44
2021/04/12 04:06:21;;;;;;;1999.90;999.90;;;14.20;99.80;;;;;;5137116;27;20171;-47
2021/04/12 04:09:16;;;;;;;1999.90;999.90;;;14.20;99.80;;;;;;5137291;27;20609;-45
2021/04/12 04:12:10;;;;;;;1999.90;999.90;;;14.20;99.80;;;;;;5137052;27;20197;-47
2021/04/12 04:15:02;;;;;;;1999.90;999.90;;;14.20;99.60;;;;;;5136883;27;20196;-47
2021/04/12 04:18:02;;;;;;;1999.90;999.90;;;14.20;99.50;;;;;;5136964;27;20165;-47
2021/04/12 04:20:31;;;;;;;1999.90;999.90;;;14.20;99.40;;;;;;5136907;27;20217;-46
2021/04/12 04:23:35;;;;;;;1999.90;999.90;;;14.30;98.90;;;;;;5136898;27;20628;-46
2021/04/12 04:26:26;;;;;;;1999.90;999.90;;;14.30;98.80;;;;;;5136944;27;20158;-44
2021/04/12 04:29:28;;;;;;;1999.90;999.90;;;14.30;98.60;;;;;;5137006;27;20629;-44
2021/04/12 04:32:43;;;;;;;1999.90;999.90;;;14.20;98.40;;;;;;5116328;27;20181;-43
2021/04/12 04:35:25;;;;;;;1999.90;999.90;;;14.20;98.40;;;;;;5073438;28;20160;-43
2021/04/12 04:38:32;;;;;;;1999.90;999.90;;;14.10;98.50;;;;;;5136415;27;20653;-45
2021/04/12 04:41:23;;;;;;;1999.90;999.90;;;14.00;98.60;;;;;;5128622;27;20265;-45
2021/04/12 04:44:16;;;;;;;1999.90;999.90;;;14.00;99.00;;;;;;5136449;27;20214;-44
2021/04/12 04:47:01;;;;;;;1999.90;999.90;;;14.00;99.00;;;;;;5133355;27;20178;-44
2021/04/12 04:49:52;;;;;;;1999.90;999.90;;;13.80;99.40;;;;;;5136404;27;20165;-45
2021/04/12 04:52:31;;;;;;;1999.90;999.90;;;13.80;99.60;;;;;;5136297;27;20166;-44
2021/04/12 04:55:19;;;;;;;1999.90;999.90;;;13.80;99.60;;;;;;5136389;27;20170;-44
2021/04/12 04:58:00;;;;;;;1999.90;999.90;;;13.80;99.90;;;;;;5136269;27;20178;-44
2021/04/12 05:00:57;;;;;;;1999.90;999.90;;;13.70;99.90;;;;;;5136395;27;20168;-44
2021/04/12 05:03:51;;;;;;;1999.90;999.90;;;13.70;99.90;;;;;;5136049;27;20162;-44
2021/04/12 05:06:50;;;;;;;1999.90;999.90;;;13.80;99.90;;;;;;5136142;27;20154;-44
2021/04/12 05:09:29;;;;;;;1999.90;999.90;;;13.90;99.90;;;;;;5135998;27;20246;-44
2021/04/12 05:12:32;;;;;;;1999.90;999.90;;;13.80;99.90;;;;;;5136047;27;20159;-45
2021/04/12 05:15:23;;;;;;;1999.90;999.90;;;13.70;99.90;;;;;;5135772;27;20620;-46
2021/04/12 05:18:29;;;;;;;1999.90;999.90;;;13.70;99.90;;;;;;5135755;27;20158;-44
2021/04/12 05:21:17;;;;;;;1999.90;999.90;;;13.70;99.90;;;;;;5135841;27;20277;-48
2021/04/12 05:24:19;;;;;;;1999.90;999.90;;;13.70;99.90;;;;;;5135626;27;20166;-45
2021/04/12 05:27:04;;;;;;;1999.90;999.90;;;13.80;99.90;;;;;;5127045;27;20192;-46
2021/04/12 05:29:45;;;;;;;1999.90;999.90;;;13.80;99.90;;;;;;5135263;27;20166;-46
2021/04/12 05:32:30;;;;;;;1999.90;999.90;;;13.80;99.90;;;;;;5135389;27;20209;-44
2021/04/12 05:35:25;;;;;;;1999.90;999.90;;;13.90;99.90;;;;;;5135341;27;20165;-47
2021/04/12 05:38:29;;;;;;;1999.90;999.90;;;13.90;99.90;;;;;;5135134;27;20625;-45
2021/04/12 05:41:33;;;;;;;1999.90;999.90;;;13.90;99.90;;;;;;5135035;27;20169;-45
2021/04/12 05:44:29;;;;;;;1999.90;999.90;;;13.90;99.90;;;;;;5103158;27;20182;-45
2021/04/12 05:47:18;;;;;;;1999.90;999.90;;;13.90;99.90;;;;;;5134956;27;20163;-44
2021/04/12 05:49:58;;;;;;;1999.90;999.90;;;13.90;99.90;;;;;;5134640;27;20170;-44
2021/04/12 05:53:02;;;;;;;1999.90;999.90;;;14.00;99.90;;;;;;5134636;27;20509;-47
2021/04/12 05:55:58;;;;;;;1999.90;999.90;;;14.00;99.90;;;;;;5134905;27;20187;-45
2021/04/12 05:58:46;;;;;;;1999.90;999.90;;;14.00;99.90;;;;;;5134605;27;20646;-43
2021/04/12 06:02:00;;;;;;;1999.90;999.90;;;14.00;99.90;;;;;;5110385;27;20158;-43
2021/04/12 06:04:33;;;;;;;1999.90;999.90;;;14.20;98.60;;;;;;5019588;28;20199;-44
2021/04/12 06:07:37;;;;;;;1999.90;999.90;;;14.50;98.20;;;;;;5030237;28;20240;-47
2021/04/12 06:10:37;;;;;;;1999.90;999.90;;;14.70;98.10;;;;;;5030330;28;20167;-47
2021/04/12 06:13:40;;;;;;;1999.90;999.90;;;15.00;97.50;;;;;;5029019;28;20189;-47
2021/04/12 06:16:29;;;;;;;1999.90;999.90;;;15.30;97.40;;;;;;5044960;28;20176;-44
2021/04/12 06:19:09;;;;;;;1999.90;999.90;;;15.50;97.20;;;;;;5038183;28;20300;-49
2021/04/12 06:22:10;;;;;;;1999.90;999.90;;;15.60;96.80;;;;;;5022660;28;20264;-45
2021/04/12 06:24:51;;;;;;;1999.90;999.90;;;15.90;96.70;;;;;;5029907;28;20166;-45
2021/04/12 06:27:42;;;;;;;1999.90;999.90;;;16.10;95.90;;;;;;5029527;28;20170;-50
2021/04/12 06:30:47;;;;;;;1999.90;999.90;;;16.30;95.50;;;;;;5029754;28;20166;-47
2021/04/12 06:33:46;;;;;;;1999.90;999.90;;;16.40;95.60;;;;;;5028512;28;20193;-46
2021/04/12 06:36:22;;;;;;;1999.90;999.90;;;16.60;95.30;;;;;;5029939;28;20629;-44
2021/04/12 06:39:30;;;;;;;1999.90;999.90;;;16.90;94.40;;;;;;5029557;28;20257;-42
2021/04/12 06:42:27;;;;;;;1999.90;999.90;;;17.00;94.20;;;;;;5038643;28;20219;-45
2021/04/12 06:45:24;;;;;;;1999.90;999.90;;;17.20;94.00;;;;;;5029739;28;20162;-44
2021/04/12 06:48:28;;;;;;;1999.90;999.90;;;17.30;93.70;;;;;;5028300;28;20525;-45
2021/04/12 06:51:00;;;;;;;1999.90;999.90;;;17.40;93.50;;;;;;5010032;28;20185;-42
2021/04/12 06:53:45;;;;;;;1999.90;999.90;;;17.40;93.30;;;;;;5018377;28;20262;-42
2021/04/12 06:56:50;;;;;;;1999.90;999.90;;;17.40;94.10;;;;;;5028791;28;20589;-56
2021/04/12 06:59:35;;;;;;;1999.90;999.90;;;17.50;93.30;;;;;;5039020;28;20188;-60
2021/04/12 07:02:44;;;;;;;1999.90;999.90;;;17.80;92.60;;;;;;5028937;28;20166;-59
2021/04/12 07:05:41;;;;;;;1999.90;999.90;;;18.10;91.20;;;;;;5028669;28;20194;-57
2021/04/12 07:08:50;;;;;;;1999.90;999.90;;;18.40;90.80;;;;;;5028828;28;20231;-60
2021/04/12 07:11:35;;;;;;;1999.90;999.90;;;18.80;89.50;;;;;;5029033;28;20177;-44
2021/04/12 07:14:07;;;;;;;1999.90;999.90;;;18.90;84.80;;;;;;5027195;28;20208;-44
2021/04/12 07:16:58;;;;;;;1999.90;999.90;;;19.10;85.20;;;;;;5029046;28;20242;-47
2021/04/12 07:19:52;;;;;;;1999.90;999.90;;;19.20;84.20;;;;;;5028800;28;20213;-40
2021/04/12 07:22:44;;;;;;;1999.90;999.90;;;19.40;83.00;;;;;;5028602;28;20182;-42
2021/04/12 07:25:54;;;;;;;1999.90;999.90;;;19.70;79.80;;;;;;5028777;28;20660;-42
2021/04/12 07:28:42;;;;;;;1999.90;999.90;;;19.90;79.00;;;;;;5029289;28;20562;-43
2021/04/12 07:31:16;;;;;;;1999.90;999.90;;;20.10;78.70;;;;;;5028778;28;20162;-43
2021/04/12 07:33:56;;;;;;;1999.90;999.90;;;20.20;80.00;;;;;;5029042;28;20201;-43
2021/04/12 07:36:48;;;;;;;1999.90;999.90;;;20.40;78.70;;;;;;5028733;28;20237;-41
2021/04/12 07:39:24;;;;;;;1999.90;999.90;;;20.50;75.40;;;;;;5028693;28;20166;-44
2021/04/12 07:42:15;;;;;;;1999.90;999.90;;;20.80;76.00;;;;;;5027172;28;20200;-46
2021/04/12 07:45:21;;;;;;;1999.90;999.90;;;21.00;73.60;;;;;;5028909;28;20166;-43
2021/04/12 07:48:20;;;;;;;1999.90;999.90;;;21.20;72.10;;;;;;5027944;28;20172;-43
2021/04/12 07:51:33;;;;;;;1999.90;999.90;;;21.40;71.30;;;;;;5028443;28;20174;-44
2021/04/12 07:54:33;;;;;;;1999.90;999.90;;;21.50;70.30;;;;;;5028541;28;20190;-42
2021/04/12 07:57:27;;;;;;;1999.90;999.90;;;21.70;69.90;;;;;;5028184;28;20168;-43
2021/04/12 08:00:18;;;;;;;1999.90;999.90;;;21.80;68.20;;;;;;5028776;28;20624;-44
2021/04/12 08:03:35;;;;;;;1999.90;999.90;;;21.80;69.20;;;;;;5028211;28;20181;-44
2021/04/12 08:06:39;;;;;;;1999.90;999.90;;;22.00;68.40;;;;;;5028710;28;20544;-57
2021/04/12 08:10:16;;;;;;;1999.90;999.90;;;22.60;66.80;;;;;;5031770;28;20590;-50
2021/04/12 08:12:57;;;;;;;1999.90;999.90;;;23.60;63.90;;;;;;4946249;28;20694;-52
2021/04/12 08:15:27;;;;;;;1999.90;999.90;;;24.20;60.00;;;;;;4939016;29;20181;-54
2021/04/12 08:17:59;;;;;;;1999.90;999.90;;;24.60;58.60;;;;;;4991486;28;20182;-55
2021/04/12 08:20:43;;;;;;;1999.90;999.90;;;25.10;56.20;;;;;;5031357;28;20722;-43
2021/04/12 08:23:43;;;;;;;1999.90;999.90;;;25.20;53.30;;;;;;5030753;28;20170;-43
2021/04/12 08:26:10;;;;;;;1999.90;999.90;;;26.10;52.60;;;;;;5029723;28;20170;-46
2021/04/12 08:29:13;;;;;;;1999.90;999.90;;;26.00;50.10;;;;;;5031634;28;20177;-44
2021/04/12 08:32:24;;;;;;;1999.90;999.90;;;26.40;48.20;;;;;;5031292;28;20238;-47
2021/04/12 08:35:40;;;;;;;1999.90;999.90;;;27.40;46.00;;;;;;5052598;28;20248;-55
2021/04/12 08:38:51;;;;;;;1999.90;999.90;;;28.30;43.10;;;;;;4992905;28;20303;-57
2021/04/12 08:41:35;;;;;;;1999.90;999.90;;;28.50;43.10;;;;;;5031916;28;20163;-54
2021/04/12 08:44:33;;;;;;;1999.90;999.90;;;29.00;40.00;;;;;;5031753;28;20177;-51
2021/04/12 08:47:28;;;;;;;1999.90;999.90;;;29.40;39.80;;;;;;5031426;28;20237;-54
2021/04/12 08:50:13;;;;;;;1999.90;999.90;;;29.80;40.00;;;;;;5030444;28;20555;-54
2021/04/12 08:52:58;;;;;;;1999.90;999.90;;;30.20;38.10;;;;;;5031261;28;20542;-44
2021/04/12 08:55:46;;;;;;;1999.90;999.90;;;30.40;37.30;;;;;;5031384;28;20166;-42
2021/04/12 08:58:25;;;;;;;1999.90;999.90;;;30.20;36.10;;;;;;5030819;28;20616;-44
2021/04/12 09:01:22;;;;;;;1999.90;999.90;;;30.50;37.00;;;;;;5030892;28;20176;-49
2021/04/12 09:04:08;;;;;;;1999.90;999.90;;;31.00;36.60;;;;;;5030427;28;20214;-45
2021/04/12 09:07:02;;;;;;;1999.90;999.90;;;31.00;37.20;;;;;;5029665;28;20687;-45
2021/04/12 09:09:41;;;;;;;1999.90;999.90;;;30.70;36.30;;;;;;5030961;28;20194;-43
2021/04/12 09:12:44;;;;;;;1999.90;999.90;;;30.40;40.10;;;;;;5030071;28;20170;-42
2021/04/12 09:15:35;;;;;;;1999.90;999.90;;;30.30;36.70;;;;;;5011021;28;20214;-42
2021/04/12 09:18:19;;;;;;;1999.90;999.90;;;30.60;35.60;;;;;;5011176;28;20521;-42
2021/04/12 09:21:08;;;;;;;1999.90;999.90;;;30.60;35.20;;;;;;5011393;28;20202;-42
2021/04/12 09:23:57;;;;;;;1999.90;999.90;;;31.20;33.70;;;;;;5025595;28;20170;-43
2021/04/12 09:26:50;;;;;;;1999.90;999.90;;;31.50;33.00;;;;;;5030221;28;20209;-43
2021/04/12 09:30:00;;;;;;;1999.90;999.90;;;31.90;32.80;;;;;;5029935;28;20277;-48
2021/04/12 09:32:38;;;;;;;1999.90;999.90;;;31.90;30.20;;;;;;5030454;28;20174;-45
2021/04/12 09:35:23;;;;;;;1999.90;999.90;;;31.80;31.30;;;;;;5030830;28;20180;-57
2021/04/12 09:38:08;;;;;;;1999.90;999.90;;;31.00;31.60;;;;;;5030116;28;20178;-53
2021/04/12 09:40:56;;;;;;;1999.90;999.90;;;31.10;33.20;;;;;;5030431;28;20552;-43
2021/04/12 09:44:01;;;;;;;1999.90;999.90;;;31.10;32.80;;;;;;5030569;28;20174;-50
2021/04/12 09:46:48;;;;;;;1999.90;999.90;;;31.40;33.30;;;;;;5030166;28;20166;-55
2021/04/12 09:49:52;;;;;;;1999.90;999.90;;;31.40;34.30;;;;;;5030816;28;20238;-47
2021/04/12 09:52:31;;;;;;;1999.90;999.90;;;31.40;34.50;;;;;;5028225;28;20209;-56
2021/04/12 09:55:03;;;;;;;1999.90;999.90;;;31.30;33.00;;;;;;5030515;28;20185;-51
2021/04/12 09:57:52;;;;;;;1999.90;999.90;;;31.30;32.90;;;;;;5030660;28;20165;-51
2021/04/12 10:00:39;;;;;;;1999.90;999.90;;;30.40;33.30;;;;;;5030605;28;20154;-50
2021/04/12 10:03:15;;;;;;;1999.90;999.90;;;30.40;33.70;;;;;;5011054;28;20166;-58
2021/04/12 10:06:19;;;;;;;1999.90;999.90;;;30.60;34.10;;;;;;5010668;28;20174;-62
2021/04/12 10:09:27;;;;;;;1999.90;999.90;;;31.40;33.70;;;;;;5026286;28;20275;-47
2021/04/12 10:12:21;;;;;;;1999.90;999.90;;;31.80;33.00;;;;;;5029281;28;20178;-48
2021/04/12 10:15:04;;;;;;;1999.90;999.90;;;32.00;31.90;;;;;;5012746;28;20599;-44
2021/04/12 10:17:44;;;;;;;1999.90;999.90;;;32.70;30.20;;;;;;5035513;28;20222;-51
2021/04/12 10:20:16;;;;;;;1999.90;999.90;;;33.00;29.30;;;;;;5080555;27;20218;-43
2021/04/12 10:22:55;;;;;;;1999.90;999.90;;;32.60;29.70;;;;;;5047141;27;20624;-43
2021/04/12 10:25:38;;;;;;;1999.90;999.90;;;32.70;29.00;;;;;;5075081;28;20169;-58
2021/04/12 10:28:21;;;;;;;1999.90;999.90;;;32.90;29.60;;;;;;5050473;28;20213;-56
2021/04/12 10:31:28;;;;;;;1999.90;999.90;;;32.60;29.20;;;;;;5049389;28;20158;-49
2021/04/12 10:34:12;;;;;;;1999.90;999.90;;;32.70;29.80;;;;;;5036368;28;20236;-44
2021/04/12 10:36:56;;;;;;;1999.90;999.90;;;32.90;28.60;;;;;;5049063;28;20165;-44
2021/04/12 10:39:38;;;;;;;1999.90;999.90;;;32.60;28.70;;;;;;5041838;28;20174;-56
2021/04/12 10:42:23;;;;;;;1999.90;999.90;;;32.30;29.20;;;;;;5029333;28;20158;-52
2021/04/12 10:45:08;;;;;;;1999.90;999.90;;;32.00;29.90;;;;;;5029105;28;20202;-45
2021/04/12 10:47:43;;;;;;;1999.90;999.90;;;32.40;29.90;;;;;;5029598;28;20177;-46
2021/04/12 10:50:20;;;;;;;1999.90;999.90;;;32.50;28.70;;;;;;5029967;28;20154;-48
2021/04/12 10:53:05;;;;;;;1999.90;999.90;;;32.40;28.90;;;;;;5029076;28;20643;-46
2021/04/12 10:55:51;;;;;;;1999.90;999.90;;;32.40;29.20;;;;;;5029857;28;20162;-49
2021/04/12 10:58:46;;;;;;;1999.90;999.90;;;32.60;29.00;;;;;;5028209;28;20253;-42
2021/04/12 11:01:38;;;;;;;1999.90;999.90;;;33.00;28.70;;;;;;5029632;28;20178;-49
2021/04/12 11:04:37;;;;;;;1999.90;999.90;;;32.50;29.20;;;;;;5025613;28;20289;-44
2021/04/12 11:07:22;;;;;;;1999.90;999.90;;;32.40;29.50;;;;;;5037164;28;20626;-50
2021/04/12 11:10:13;;;;;;;1999.90;999.90;;;32.00;30.20;;;;;;5029595;28;20174;-51
2021/04/12 11:12:47;;;;;;;1999.90;999.90;;;32.10;30.00;;;;;;5028714;28;20169;-50
2021/04/12 11:15:50;;;;;;;1999.90;999.90;;;32.20;29.70;;;;;;5028800;28;20165;-48
2021/04/12 11:18:32;;;;;;;1999.90;999.90;;;32.00;30.20;;;;;;5029313;28;20210;-42
2021/04/12 11:21:40;;;;;;;1999.90;999.90;;;31.90;29.80;;;;;;5029383;28;20162;-48
2021/04/12 11:24:17;;;;;;;1999.90;999.90;;;31.70;29.80;;;;;;5039001;28;20186;-43
2021/04/12 11:27:28;;;;;;;1999.90;999.90;;;31.40;30.00;;;;;;5027905;28;20551;-58
2021/04/12 11:30:19;;;;;;;1999.90;999.90;;;31.60;29.80;;;;;;5009613;28;20624;-48
2021/04/12 11:33:04;;;;;;;1999.90;999.90;;;31.90;29.80;;;;;;5009426;28;20174;-50
2021/04/12 11:35:49;;;;;;;1999.90;999.90;;;32.10;29.50;;;;;;5019101;28;20178;-48
2021/04/12 11:38:22;;;;;;;1999.90;999.90;;;32.30;29.70;;;;;;5029411;28;20174;-46
2021/04/12 11:41:18;;;;;;;1999.90;999.90;;;32.40;29.00;;;;;;5028960;28;20170;-49
2021/04/12 11:43:50;;;;;;;1999.90;999.90;;;32.60;28.50;;;;;;5024502;28;20728;-48
2021/04/12 11:46:26;;;;;;;1999.90;999.90;;;32.60;28.90;;;;;;5032142;28;20182;-48
2021/04/12 11:49:27;;;;;;;1999.90;999.90;;;32.60;28.50;;;;;;5032547;28;21226;-46
2021/04/12 11:52:34;;;;;;;1999.90;999.90;;;32.40;28.70;;;;;;5043687;28;20161;-46
2021/04/12 11:55:00;;;;;;;1999.90;999.90;;;32.40;29.10;;;;;;5009653;28;20208;-43
2021/04/12 11:57:43;;;;;;;1999.90;999.90;;;32.50;28.70;;;;;;5012694;28;20175;-45
2021/04/12 12:00:10;;;;;;;1999.90;999.90;;;32.60;28.50;;;;;;5013082;28;20162;-49
2021/04/12 12:03:00;;;;;;;1999.90;999.90;;;32.70;28.50;;;;;;5032073;28;20177;-45
2021/04/12 12:05:40;;;;;;;1999.90;999.90;;;32.90;28.20;;;;;;5041233;28;20216;-47
2021/04/12 12:08:12;;;;;;;1999.90;999.90;;;33.00;28.30;;;;;;5031834;28;20170;-44
2021/04/12 12:11:03;;;;;;;1999.90;999.90;;;33.00;28.30;;;;;;5043956;28;20542;-44
2021/04/12 12:13:41;;;;;;;1999.90;999.90;;;33.20;28.20;;;;;;5035528;28;20547;-45
2021/04/12 12:16:23;;;;;;;1999.90;999.90;;;33.20;28.30;;;;;;5031577;28;20166;-42
2021/04/12 12:19:00;;;;;;;1999.90;999.90;;;33.20;28.20;;;;;;5034426;28;20223;-47
2021/04/12 12:21:36;;;;;;;1999.90;999.90;;;33.20;27.70;;;;;;5051894;28;20221;-50
2021/04/12 12:24:14;;;;;;;1999.90;999.90;;;33.00;27.90;;;;;;5037078;28;20563;-49
2021/04/12 12:26:44;;;;;;;1999.90;999.90;;;33.00;27.40;;;;;;5031737;28;20170;-50
2021/04/12 12:29:20;;;;;;;1999.90;999.90;;;32.90;28.00;;;;;;5029455;28;20586;-51
2021/04/12 12:32:16;;;;;;;1999.90;999.90;;;32.70;27.70;;;;;;5031503;28;20226;-58
2021/04/12 12:34:55;;;;;;;1999.90;999.90;;;32.60;27.80;;;;;;5032145;28;20563;-54
2021/04/12 12:37:50;;;;;;;1999.90;999.90;;;32.40;27.80;;;;;;5031625;28;20194;-45
2021/04/12 12:40:18;;;;;;;1999.90;999.90;;;32.10;28.00;;;;;;5039816;28;20234;-55
2021/04/12 12:42:50;;;;;;;1999.90;999.90;;;32.20;27.90;;;;;;5032306;28;20197;-59
2021/04/12 12:45:27;;;;;;;1999.90;999.90;;;32.10;27.70;;;;;;5031535;28;20628;-57
2021/04/12 12:47:58;;;;;;;1999.90;999.90;;;32.10;27.60;;;;;;5031585;28;20177;-49
2021/04/12 12:50:30;;;;;;;1999.90;999.90;;;32.10;30.00;;;;;;5030757;28;20540;-48
2021/04/12 12:53:07;;;;;;;1999.90;999.90;;;32.00;30.20;;;;;;5030734;28;20606;-53
2021/04/12 12:55:43;;;;;;;1999.90;999.90;;;31.90;30.40;;;;;;5031293;28;20307;-55
2021/04/12 12:58:17;;;;;;;1999.90;999.90;;;31.90;30.20;;;;;;5047892;28;20253;-55
2021/04/12 13:00:50;;;;;;;1999.90;999.90;;;31.90;30.00;;;;;;5029707;28;20185;-46
2021/04/12 13:03:19;;;;;;;1999.90;999.90;;;32.00;30.00;;;;;;5028516;28;20181;-47
2021/04/12 13:05:49;;;;;;;1999.90;999.90;;;32.00;30.00;;;;;;5031511;28;20539;-45
2021/04/12 13:08:24;;;;;;;1999.90;999.90;;;32.10;29.70;;;;;;5031684;28;20222;-45
2021/04/12 13:10:53;;;;;;;1999.90;999.90;;;32.20;29.90;;;;;;5031647;28;20248;-48
2021/04/12 13:13:28;;;;;;;1999.90;999.90;;;32.10;30.00;;;;;;5031209;28;20574;-48
2021/04/12 13:16:10;;;;;;;1999.90;999.90;;;31.90;30.00;;;;;;5031270;28;20191;-45
2021/04/12 13:18:38;;;;;;;1999.90;999.90;;;31.80;29.70;;;;;;5031301;28;20659;-48
2021/04/12 13:21:14;;;;;;;1999.90;999.90;;;31.80;30.00;;;;;;5030055;28;20591;-47
2021/04/12 13:23:44;;;;;;;1999.90;999.90;;;31.70;30.40;;;;;;5031201;28;20174;-48
2021/04/12 13:26:35;;;;;;;1999.90;999.90;;;31.50;30.20;;;;;;5031348;28;20173;-46
2021/04/12 13:29:41;;;;;;;1999.90;999.90;;;31.40;29.60;;;;;;5031274;28;20261;-45
2021/04/12 13:32:20;;;;;;;1999.90;999.90;;;31.40;30.00;;;;;;5033855;28;20190;-46
2021/04/12 13:35:02;;;;;;;1999.90;999.90;;;31.60;30.10;;;;;;5031143;28;20233;-46
2021/04/12 13:37:40;;;;;;;1999.90;999.90;;;31.60;29.70;;;;;;5031117;28;20162;-46
2021/04/12 13:40:30;;;;;;;1999.90;999.90;;;31.70;29.50;;;;;;5030815;28;20631;-45
2021/04/12 13:43:04;;;;;;;1999.90;999.90;;;31.70;29.60;;;;;;5031009;28;20697;-48
2021/04/12 13:45:42;;;;;;;1999.90;999.90;;;31.70;29.70;;;;;;5030947;28;20162;-47